sensor_id;sensor_type;location;lat;lon;timestamp;temperature;humidity
23116;DHT22;11727;52.134;5.052;2023-10-31T00:01:47;10.30;99.90
23116;DHT22;11727;52.134;5.052;2023-10-31T00:04:14;10.30;99.90
23116;DHT22;11727;52.134;5.052;2023-10-31T00:06:40;10.30;99.90
23116;DHT22;11727;52.134;5.052;2023-10-31T00:09:06;10.30;99.90
23116;DHT22;11727;52.134;5.052;2023-10-31T00:11:32;10.40;99.90
23116;DHT22;11727;52.134;5.052;2023-10-31T00:13:57;10.40;99.90
23116;DHT22;11727;52.134;5.052;2023-10-31T00:16:23;10.40;99.90
23116;DHT22;11727;52.134;5.052;2023-10-31T00:18:49;10.40;99.90
23116;DHT22;11727;52.134;5.052;2023-10-31T00:21:15;10.40;99.90
23116;DHT22;11727;52.134;5.052;2023-10-31T00:23:47;10.40;99.90
23116;DHT22;11727;52.134;5.052;2023-10-31T00:26:14;10.50;99.90
23116;DHT22;11727;52.134;5.052;2023-10-31T00:28:40;10.50;99.90
23116;DHT22;11727;52.134;5.052;2023-10-31T00:31:06;10.50;99.90
23116;DHT22;11727;52.134;5.052;2023-10-31T00:33:39;10.40;99.90
23116;DHT22;11727;52.134;5.052;2023-10-31T00:36:05;10.50;99.90
23116;DHT22;11727;52.134;5.052;2023-10-31T00:38:31;10.50;99.90
23116;DHT22;11727;52.134;5.052;2023-10-31T00:40:57;10.50;99.90
23116;DHT22;11727;52.134;5.052;2023-10-31T00:43:22;10.50;99.90
23116;DHT22;11727;52.134;5.052;2023-10-31T00:45:48;10.50;99.90
23116;DHT22;11727;52.134;5.052;2023-10-31T00:48:13;10.50;99.90
23116;DHT22;11727;52.134;5.052;2023-10-31T00:50:39;10.60;99.90
23116;DHT22;11727;52.134;5.052;2023-10-31T00:53:05;10.50;99.90
23116;DHT22;11727;52.134;5.052;2023-10-31T00:55:30;10.50;99.90
23116;DHT22;11727;52.134;5.052;2023-10-31T00:57:56;10.50;99.90
23116;DHT22;11727;52.134;5.052;2023-10-31T01:00:21;10.50;99.90
23116;DHT22;11727;52.134;5.052;2023-10-31T01:02:47;10.60;99.90
23116;DHT22;11727;52.134;5.052;2023-10-31T01:05:13;10.50;99.90
23116;DHT22;11727;52.134;5.052;2023-10-31T01:07:38;10.50;99.90
23116;DHT22;11727;52.134;5.052;2023-10-31T01:10:04;10.60;99.90
23116;DHT22;11727;52.134;5.052;2023-10-31T01:12:30;10.50;99.90
23116;DHT22;11727;52.134;5.052;2023-10-31T01:14:56;10.50;99.90
23116;DHT22;11727;52.134;5.052;2023-10-31T01:17:22;10.50;99.90
23116;DHT22;11727;52.134;5.052;2023-10-31T01:19:48;10.50;99.90
23116;DHT22;11727;52.134;5.052;2023-10-31T01:22:13;10.50;99.90
23116;DHT22;11727;52.134;5.052;2023-10-31T01:24:39;10.50;99.90
23116;DHT22;11727;52.134;5.052;2023-10-31T01:27:05;10.50;99.90
23116;DHT22;11727;52.134;5.052;2023-10-31T01:29:30;10.60;99.90
23116;DHT22;11727;52.134;5.052;2023-10-31T01:31:56;10.50;99.90
23116;DHT22;11727;52.134;5.052;2023-10-31T01:34:22;10.50;99.90
23116;DHT22;11727;52.134;5.052;2023-10-31T01:36:48;10.50;99.90
23116;DHT22;11727;52.134;5.052;2023-10-31T01:39:13;10.60;99.90
23116;DHT22;11727;52.134;5.052;2023-10-31T01:41:41;10.50;99.90
23116;DHT22;11727;52.134;5.052;2023-10-31T01:44:08;10.60;99.90
23116;DHT22;11727;52.134;5.052;2023-10-31T01:46:33;10.60;99.90
23116;DHT22;11727;52.134;5.052;2023-10-31T01:48:59;10.50;99.90
23116;DHT22;11727;52.134;5.052;2023-10-31T01:51:26;10.50;99.90
23116;DHT22;11727;52.134;5.052;2023-10-31T01:53:55;10.50;99.90
23116;DHT22;11727;52.134;5.052;2023-10-31T01:56:21;10.50;99.90
23116;DHT22;11727;52.134;5.052;2023-10-31T01:58:49;10.60;99.90
23116;DHT22;11727;52.134;5.052;2023-10-31T02:01:15;10.60;99.90
23116;DHT22;11727;52.134;5.052;2023-10-31T02:03:40;10.60;99.90
23116;DHT22;11727;52.134;5.052;2023-10-31T02:06:06;10.60;99.90
23116;DHT22;11727;52.134;5.052;2023-10-31T02:08:32;10.60;99.90
23116;DHT22;11727;52.134;5.052;2023-10-31T02:10:58;10.60;99.90
23116;DHT22;11727;52.134;5.052;2023-10-31T02:13:24;10.60;99.90
23116;DHT22;11727;52.134;5.052;2023-10-31T02:15:50;10.60;99.90
23116;DHT22;11727;52.134;5.052;2023-10-31T02:18:16;10.60;99.90
23116;DHT22;11727;52.134;5.052;2023-10-31T02:20:41;10.60;99.90
23116;DHT22;11727;52.134;5.052;2023-10-31T02:23:07;10.60;99.90
23116;DHT22;11727;52.134;5.052;2023-10-31T02:25:33;10.60;99.90
23116;DHT22;11727;52.134;5.052;2023-10-31T02:27:58;10.60;99.90
23116;DHT22;11727;52.134;5.052;2023-10-31T02:30:24;10.60;99.90
23116;DHT22;11727;52.134;5.052;2023-10-31T02:32:50;10.60;99.90
23116;DHT22;11727;52.134;5.052;2023-10-31T02:35:17;10.60;99.90
23116;DHT22;11727;52.134;5.052;2023-10-31T02:37:46;10.60;99.90
23116;DHT22;11727;52.134;5.052;2023-10-31T02:40:13;10.60;99.90
23116;DHT22;11727;52.134;5.052;2023-10-31T02:42:38;10.60;99.90
23116;DHT22;11727;52.134;5.052;2023-10-31T02:45:05;10.60;99.90
23116;DHT22;11727;52.134;5.052;2023-10-31T02:47:30;10.60;99.90
23116;DHT22;11727;52.134;5.052;2023-10-31T02:49:56;10.60;99.90
23116;DHT22;11727;52.134;5.052;2023-10-31T02:52:22;10.70;99.90
23116;DHT22;11727;52.134;5.052;2023-10-31T02:54:47;10.60;99.90
23116;DHT22;11727;52.134;5.052;2023-10-31T02:57:14;10.60;99.90
23116;DHT22;11727;52.134;5.052;2023-10-31T02:59:39;10.70;99.90
23116;DHT22;11727;52.134;5.052;2023-10-31T03:02:05;10.60;99.90
23116;DHT22;11727;52.134;5.052;2023-10-31T03:04:30;10.60;99.90
23116;DHT22;11727;52.134;5.052;2023-10-31T03:06:56;10.60;99.90
23116;DHT22;11727;52.134;5.052;2023-10-31T03:09:22;10.60;99.90
23116;DHT22;11727;52.134;5.052;2023-10-31T03:11:47;10.60;99.90
23116;DHT22;11727;52.134;5.052;2023-10-31T03:14:13;10.60;99.90
23116;DHT22;11727;52.134;5.052;2023-10-31T03:16:38;10.60;99.90
23116;DHT22;11727;52.134;5.052;2023-10-31T03:19:05;10.60;99.90
23116;DHT22;11727;52.134;5.052;2023-10-31T03:21:30;10.60;99.90
23116;DHT22;11727;52.134;5.052;2023-10-31T03:23:56;10.60;99.90
23116;DHT22;11727;52.134;5.052;2023-10-31T03:26:22;10.60;99.90
23116;DHT22;11727;52.134;5.052;2023-10-31T03:28:48;10.60;99.90
23116;DHT22;11727;52.134;5.052;2023-10-31T03:31:15;10.60;99.90
23116;DHT22;11727;52.134;5.052;2023-10-31T03:33:41;10.60;99.90
23116;DHT22;11727;52.134;5.052;2023-10-31T03:36:08;10.60;99.90
23116;DHT22;11727;52.134;5.052;2023-10-31T03:38:34;10.50;99.90
23116;DHT22;11727;52.134;5.052;2023-10-31T03:41:01;10.60;99.90
23116;DHT22;11727;52.134;5.052;2023-10-31T03:43:27;10.60;99.90
23116;DHT22;11727;52.134;5.052;2023-10-31T03:45:52;10.50;99.90
23116;DHT22;11727;52.134;5.052;2023-10-31T03:48:18;10.50;99.90
23116;DHT22;11727;52.134;5.052;2023-10-31T03:50:44;10.50;99.90
23116;DHT22;11727;52.134;5.052;2023-10-31T03:53:10;10.40;99.90
23116;DHT22;11727;52.134;5.052;2023-10-31T03:55:36;10.40;99.90
23116;DHT22;11727;52.134;5.052;2023-10-31T03:58:01;10.40;99.90
23116;DHT22;11727;52.134;5.052;2023-10-31T04:00:27;10.40;99.90
23116;DHT22;11727;52.134;5.052;2023-10-31T04:02:53;10.40;99.90
23116;DHT22;11727;52.134;5.052;2023-10-31T04:05:18;10.40;99.90
23116;DHT22;11727;52.134;5.052;2023-10-31T04:07:46;10.30;99.90
23116;DHT22;11727;52.134;5.052;2023-10-31T04:10:12;10.30;99.90
23116;DHT22;11727;52.134;5.052;2023-10-31T04:12:39;10.30;99.90
23116;DHT22;11727;52.134;5.052;2023-10-31T04:15:05;10.30;99.90
23116;DHT22;11727;52.134;5.052;2023-10-31T04:17:30;10.20;99.90
23116;DHT22;11727;52.134;5.052;2023-10-31T04:19:56;10.20;99.90
23116;DHT22;11727;52.134;5.052;2023-10-31T04:22:22;10.20;99.90
23116;DHT22;11727;52.134;5.052;2023-10-31T04:24:48;10.10;99.90
23116;DHT22;11727;52.134;5.052;2023-10-31T04:27:13;10.10;99.90
23116;DHT22;11727;52.134;5.052;2023-10-31T04:29:39;10.10;99.90
23116;DHT22;11727;52.134;5.052;2023-10-31T04:32:05;10.10;99.90
23116;DHT22;11727;52.134;5.052;2023-10-31T04:34:31;10.00;99.90
23116;DHT22;11727;52.134;5.052;2023-10-31T04:36:57;10.00;99.90
23116;DHT22;11727;52.134;5.052;2023-10-31T04:39:23;10.00;99.90
23116;DHT22;11727;52.134;5.052;2023-10-31T04:41:49;10.00;99.90
23116;DHT22;11727;52.134;5.052;2023-10-31T04:44:15;10.00;99.90
23116;DHT22;11727;52.134;5.052;2023-10-31T04:46:42;10.00;99.90
23116;DHT22;11727;52.134;5.052;2023-10-31T04:49:09;10.00;99.90
23116;DHT22;11727;52.134;5.052;2023-10-31T04:51:38;10.00;99.90
23116;DHT22;11727;52.134;5.052;2023-10-31T04:54:04;10.00;99.90
23116;DHT22;11727;52.134;5.052;2023-10-31T04:56:30;10.00;99.90
23116;DHT22;11727;52.134;5.052;2023-10-31T04:58:56;9.90;99.90
23116;DHT22;11727;52.134;5.052;2023-10-31T05:01:21;10.00;99.90
23116;DHT22;11727;52.134;5.052;2023-10-31T05:03:47;10.00;99.90
23116;DHT22;11727;52.134;5.052;2023-10-31T05:06:13;10.00;99.90
23116;DHT22;11727;52.134;5.052;2023-10-31T05:08:38;10.00;99.90
23116;DHT22;11727;52.134;5.052;2023-10-31T05:11:04;10.00;99.90
23116;DHT22;11727;52.134;5.052;2023-10-31T05:13:30;10.00;99.90
23116;DHT22;11727;52.134;5.052;2023-10-31T05:15:55;10.00;99.90
23116;DHT22;11727;52.134;5.052;2023-10-31T05:18:21;10.00;99.90
23116;DHT22;11727;52.134;5.052;2023-10-31T05:20:47;10.10;99.90
23116;DHT22;11727;52.134;5.052;2023-10-31T05:23:13;10.10;99.90
23116;DHT22;11727;52.134;5.052;2023-10-31T05:25:39;10.10;99.90
23116;DHT22;11727;52.134;5.052;2023-10-31T05:28:05;10.10;99.90
23116;DHT22;11727;52.134;5.052;2023-10-31T05:30:30;10.10;99.90
23116;DHT22;11727;52.134;5.052;2023-10-31T05:32:56;10.10;99.90
23116;DHT22;11727;52.134;5.052;2023-10-31T05:35:22;10.10;99.90
23116;DHT22;11727;52.134;5.052;2023-10-31T05:37:48;10.10;99.90
23116;DHT22;11727;52.134;5.052;2023-10-31T05:40:14;10.10;99.90
23116;DHT22;11727;52.134;5.052;2023-10-31T05:42:40;10.10;99.90
23116;DHT22;11727;52.134;5.052;2023-10-31T05:45:06;10.10;99.90
23116;DHT22;11727;52.134;5.052;2023-10-31T05:47:32;10.10;99.90
23116;DHT22;11727;52.134;5.052;2023-10-31T05:50:00;10.10;99.90
23116;DHT22;11727;52.134;5.052;2023-10-31T05:52:29;10.10;99.90
23116;DHT22;11727;52.134;5.052;2023-10-31T05:54:55;10.10;99.90
23116;DHT22;11727;52.134;5.052;2023-10-31T05:57:21;10.10;99.90
23116;DHT22;11727;52.134;5.052;2023-10-31T05:59:47;10.10;99.90
23116;DHT22;11727;52.134;5.052;2023-10-31T06:02:13;10.10;99.90
23116;DHT22;11727;52.134;5.052;2023-10-31T06:04:39;10.10;99.90
23116;DHT22;11727;52.134;5.052;2023-10-31T06:07:05;10.10;99.90
23116;DHT22;11727;52.134;5.052;2023-10-31T06:09:31;10.10;99.90
23116;DHT22;11727;52.134;5.052;2023-10-31T06:11:58;10.10;99.90
23116;DHT22;11727;52.134;5.052;2023-10-31T06:14:24;10.10;99.90
23116;DHT22;11727;52.134;5.052;2023-10-31T06:16:51;10.20;99.90
23116;DHT22;11727;52.134;5.052;2023-10-31T06:19:16;10.10;99.90
23116;DHT22;11727;52.134;5.052;2023-10-31T06:21:42;10.10;99.90
23116;DHT22;11727;52.134;5.052;2023-10-31T06:24:08;10.10;99.90
23116;DHT22;11727;52.134;5.052;2023-10-31T06:26:34;10.00;99.90
23116;DHT22;11727;52.134;5.052;2023-10-31T06:28:59;10.10;99.90
23116;DHT22;11727;52.134;5.052;2023-10-31T06:31:25;10.10;99.90
23116;DHT22;11727;52.134;5.052;2023-10-31T06:33:50;10.00;99.90
23116;DHT22;11727;52.134;5.052;2023-10-31T06:36:19;10.00;99.90
23116;DHT22;11727;52.134;5.052;2023-10-31T06:38:47;10.00;99.90
23116;DHT22;11727;52.134;5.052;2023-10-31T06:41:13;10.10;99.90
23116;DHT22;11727;52.134;5.052;2023-10-31T06:43:39;10.00;99.90
23116;DHT22;11727;52.134;5.052;2023-10-31T06:46:05;10.00;99.90
23116;DHT22;11727;52.134;5.052;2023-10-31T06:48:31;10.10;99.90
23116;DHT22;11727;52.134;5.052;2023-10-31T06:50:56;10.00;99.90
23116;DHT22;11727;52.134;5.052;2023-10-31T06:53:22;10.00;99.90
23116;DHT22;11727;52.134;5.052;2023-10-31T06:55:52;10.00;99.90
23116;DHT22;11727;52.134;5.052;2023-10-31T06:58:20;10.00;99.90
23116;DHT22;11727;52.134;5.052;2023-10-31T07:00:46;10.10;99.90
23116;DHT22;11727;52.134;5.052;2023-10-31T07:03:12;10.10;99.90
23116;DHT22;11727;52.134;5.052;2023-10-31T07:05:41;10.10;99.90
23116;DHT22;11727;52.134;5.052;2023-10-31T07:08:07;10.10;99.90
23116;DHT22;11727;52.134;5.052;2023-10-31T07:10:32;10.20;99.90
23116;DHT22;11727;52.134;5.052;2023-10-31T07:12:59;10.20;99.90
23116;DHT22;11727;52.134;5.052;2023-10-31T07:15:27;10.20;99.90
23116;DHT22;11727;52.134;5.052;2023-10-31T07:17:53;10.20;99.90
23116;DHT22;11727;52.134;5.052;2023-10-31T07:20:18;10.20;99.90
23116;DHT22;11727;52.134;5.052;2023-10-31T07:22:44;10.30;99.90
23116;DHT22;11727;52.134;5.052;2023-10-31T07:25:11;10.30;99.90
23116;DHT22;11727;52.134;5.052;2023-10-31T07:27:36;10.30;99.90
23116;DHT22;11727;52.134;5.052;2023-10-31T07:30:05;10.30;99.90
23116;DHT22;11727;52.134;5.052;2023-10-31T07:32:31;10.30;99.90
23116;DHT22;11727;52.134;5.052;2023-10-31T07:34:58;10.30;99.90
23116;DHT22;11727;52.134;5.052;2023-10-31T07:37:23;10.30;99.90
23116;DHT22;11727;52.134;5.052;2023-10-31T07:39:49;10.30;99.90
23116;DHT22;11727;52.134;5.052;2023-10-31T07:42:16;10.30;99.90
23116;DHT22;11727;52.134;5.052;2023-10-31T07:44:42;10.40;99.90
23116;DHT22;11727;52.134;5.052;2023-10-31T07:47:07;10.40;99.90
23116;DHT22;11727;52.134;5.052;2023-10-31T07:49:33;10.40;99.90
23116;DHT22;11727;52.134;5.052;2023-10-31T07:51:58;10.40;99.90
23116;DHT22;11727;52.134;5.052;2023-10-31T07:54:24;10.30;99.90
23116;DHT22;11727;52.134;5.052;2023-10-31T07:56:50;10.40;99.90
23116;DHT22;11727;52.134;5.052;2023-10-31T07:59:15;10.40;99.90
23116;DHT22;11727;52.134;5.052;2023-10-31T08:01:41;10.40;99.90
23116;DHT22;11727;52.134;5.052;2023-10-31T08:04:06;10.50;99.90
23116;DHT22;11727;52.134;5.052;2023-10-31T08:06:32;10.40;99.90
23116;DHT22;11727;52.134;5.052;2023-10-31T08:08:58;10.50;99.90
23116;DHT22;11727;52.134;5.052;2023-10-31T08:11:23;10.50;99.90
23116;DHT22;11727;52.134;5.052;2023-10-31T08:13:49;10.60;99.90
23116;DHT22;11727;52.134;5.052;2023-10-31T08:16:19;10.60;99.90
23116;DHT22;11727;52.134;5.052;2023-10-31T08:18:48;10.70;99.90
23116;DHT22;11727;52.134;5.052;2023-10-31T08:21:14;10.70;99.90
23116;DHT22;11727;52.134;5.052;2023-10-31T08:23:40;10.70;99.90
23116;DHT22;11727;52.134;5.052;2023-10-31T08:26:06;10.70;99.90
23116;DHT22;11727;52.134;5.052;2023-10-31T08:28:31;10.80;99.90
23116;DHT22;11727;52.134;5.052;2023-10-31T08:30:57;10.80;99.90
23116;DHT22;11727;52.134;5.052;2023-10-31T08:33:23;10.80;99.90
23116;DHT22;11727;52.134;5.052;2023-10-31T08:35:49;10.80;99.90
23116;DHT22;11727;52.134;5.052;2023-10-31T08:38:14;10.80;99.90
23116;DHT22;11727;52.134;5.052;2023-10-31T08:40:41;10.80;99.90
23116;DHT22;11727;52.134;5.052;2023-10-31T08:43:07;10.80;99.90
23116;DHT22;11727;52.134;5.052;2023-10-31T08:45:33;10.90;99.90
23116;DHT22;11727;52.134;5.052;2023-10-31T08:47:59;10.90;99.90
23116;DHT22;11727;52.134;5.052;2023-10-31T08:50:25;10.90;99.90
23116;DHT22;11727;52.134;5.052;2023-10-31T08:52:51;11.00;99.90
23116;DHT22;11727;52.134;5.052;2023-10-31T08:55:17;11.00;99.90
23116;DHT22;11727;52.134;5.052;2023-10-31T08:57:43;11.00;99.90
23116;DHT22;11727;52.134;5.052;2023-10-31T09:00:08;11.00;99.90
23116;DHT22;11727;52.134;5.052;2023-10-31T09:02:35;11.10;99.90
23116;DHT22;11727;52.134;5.052;2023-10-31T09:05:00;11.10;99.90
23116;DHT22;11727;52.134;5.052;2023-10-31T09:07:26;11.10;99.90
23116;DHT22;11727;52.134;5.052;2023-10-31T09:09:52;11.20;99.90
23116;DHT22;11727;52.134;5.052;2023-10-31T09:12:18;11.20;99.90
23116;DHT22;11727;52.134;5.052;2023-10-31T09:14:43;11.30;99.90
23116;DHT22;11727;52.134;5.052;2023-10-31T09:17:09;11.40;99.90
23116;DHT22;11727;52.134;5.052;2023-10-31T09:19:35;11.50;99.90
23116;DHT22;11727;52.134;5.052;2023-10-31T09:22:00;11.50;99.90
23116;DHT22;11727;52.134;5.052;2023-10-31T09:24:26;11.60;99.90
23116;DHT22;11727;52.134;5.052;2023-10-31T09:26:52;11.70;99.90
23116;DHT22;11727;52.134;5.052;2023-10-31T09:29:17;11.70;99.90
23116;DHT22;11727;52.134;5.052;2023-10-31T09:31:43;11.80;99.90
23116;DHT22;11727;52.134;5.052;2023-10-31T09:34:08;11.80;99.90
23116;DHT22;11727;52.134;5.052;2023-10-31T09:36:35;11.90;99.90
23116;DHT22;11727;52.134;5.052;2023-10-31T09:39:01;12.00;99.90
23116;DHT22;11727;52.134;5.052;2023-10-31T09:41:27;12.00;99.90
23116;DHT22;11727;52.134;5.052;2023-10-31T09:43:53;12.00;99.90
23116;DHT22;11727;52.134;5.052;2023-10-31T09:46:19;12.10;99.90
23116;DHT22;11727;52.134;5.052;2023-10-31T09:48:46;12.20;99.90
23116;DHT22;11727;52.134;5.052;2023-10-31T09:51:12;12.20;99.90
23116;DHT22;11727;52.134;5.052;2023-10-31T09:53:38;12.30;99.90
23116;DHT22;11727;52.134;5.052;2023-10-31T09:56:05;12.30;99.90
23116;DHT22;11727;52.134;5.052;2023-10-31T09:58:31;12.30;99.90
23116;DHT22;11727;52.134;5.052;2023-10-31T10:00:57;12.40;99.90
23116;DHT22;11727;52.134;5.052;2023-10-31T10:03:23;12.40;99.90
23116;DHT22;11727;52.134;5.052;2023-10-31T10:05:49;12.40;99.90
23116;DHT22;11727;52.134;5.052;2023-10-31T10:08:15;12.40;99.90
23116;DHT22;11727;52.134;5.052;2023-10-31T10:10:41;12.50;99.90
23116;DHT22;11727;52.134;5.052;2023-10-31T10:13:07;12.50;99.90
23116;DHT22;11727;52.134;5.052;2023-10-31T10:15:52;12.50;99.90
23116;DHT22;11727;52.134;5.052;2023-10-31T10:18:30;12.50;99.90
23116;DHT22;11727;52.134;5.052;2023-10-31T10:20:59;12.50;99.90
23116;DHT22;11727;52.134;5.052;2023-10-31T10:23:26;12.50;99.90
23116;DHT22;11727;52.134;5.052;2023-10-31T10:25:52;12.50;99.90
23116;DHT22;11727;52.134;5.052;2023-10-31T10:28:18;12.50;99.90
23116;DHT22;11727;52.134;5.052;2023-10-31T10:30:48;12.50;99.90
23116;DHT22;11727;52.134;5.052;2023-10-31T10:33:17;12.50;99.90
23116;DHT22;11727;52.134;5.052;2023-10-31T10:35:43;12.60;99.90
23116;DHT22;11727;52.134;5.052;2023-10-31T10:38:15;12.70;99.90
23116;DHT22;11727;52.134;5.052;2023-10-31T10:40:45;12.70;99.90
23116;DHT22;11727;52.134;5.052;2023-10-31T10:43:25;12.80;99.90
23116;DHT22;11727;52.134;5.052;2023-10-31T10:45:59;12.80;99.90
23116;DHT22;11727;52.134;5.052;2023-10-31T10:48:26;12.80;99.90
23116;DHT22;11727;52.134;5.052;2023-10-31T10:51:00;12.90;99.90
23116;DHT22;11727;52.134;5.052;2023-10-31T10:53:35;12.90;99.90
23116;DHT22;11727;52.134;5.052;2023-10-31T10:56:12;12.90;99.90
23116;DHT22;11727;52.134;5.052;2023-10-31T10:58:57;13.00;99.90
23116;DHT22;11727;52.134;5.052;2023-10-31T11:01:25;13.00;99.90
23116;DHT22;11727;52.134;5.052;2023-10-31T11:03:53;13.00;99.90
23116;DHT22;11727;52.134;5.052;2023-10-31T11:06:19;13.10;99.90
23116;DHT22;11727;52.134;5.052;2023-10-31T11:08:46;13.20;99.90
23116;DHT22;11727;52.134;5.052;2023-10-31T11:11:12;13.10;99.90
23116;DHT22;11727;52.134;5.052;2023-10-31T11:13:38;13.10;99.90
23116;DHT22;11727;52.134;5.052;2023-10-31T11:16:52;13.10;99.90
23116;DHT22;11727;52.134;5.052;2023-10-31T11:19:11;13.10;99.90
23116;DHT22;11727;52.134;5.052;2023-10-31T11:21:37;13.10;99.90
23116;DHT22;11727;52.134;5.052;2023-10-31T11:24:17;13.10;99.90
23116;DHT22;11727;52.134;5.052;2023-10-31T11:26:51;13.00;99.90
23116;DHT22;11727;52.134;5.052;2023-10-31T11:29:17;12.90;99.90
23116;DHT22;11727;52.134;5.052;2023-10-31T11:31:43;12.90;99.90
23116;DHT22;11727;52.134;5.052;2023-10-31T11:34:09;12.90;99.90
23116;DHT22;11727;52.134;5.052;2023-10-31T11:36:38;12.80;99.90
23116;DHT22;11727;52.134;5.052;2023-10-31T11:39:11;12.70;99.90
23116;DHT22;11727;52.134;5.052;2023-10-31T11:41:40;12.70;99.90
23116;DHT22;11727;52.134;5.052;2023-10-31T11:44:10;12.70;99.90
23116;DHT22;11727;52.134;5.052;2023-10-31T11:46:36;12.70;99.90
23116;DHT22;11727;52.134;5.052;2023-10-31T11:49:02;12.80;99.90
23116;DHT22;11727;52.134;5.052;2023-10-31T11:51:30;12.70;99.90
23116;DHT22;11727;52.134;5.052;2023-10-31T11:53:56;12.90;99.90
23116;DHT22;11727;52.134;5.052;2023-10-31T11:56:22;12.90;99.90
23116;DHT22;11727;52.134;5.052;2023-10-31T11:59:04;12.90;99.90
23116;DHT22;11727;52.134;5.052;2023-10-31T12:01:32;12.90;99.90
23116;DHT22;11727;52.134;5.052;2023-10-31T12:03:57;12.90;99.90
23116;DHT22;11727;52.134;5.052;2023-10-31T12:06:23;12.80;99.90
23116;DHT22;11727;52.134;5.052;2023-10-31T12:08:49;12.90;99.90
23116;DHT22;11727;52.134;5.052;2023-10-31T12:11:23;12.80;99.90
23116;DHT22;11727;52.134;5.052;2023-10-31T12:13:59;12.80;99.90
23116;DHT22;11727;52.134;5.052;2023-10-31T12:16:28;12.70;99.90
23116;DHT22;11727;52.134;5.052;2023-10-31T12:18:58;12.70;99.90
23116;DHT22;11727;52.134;5.052;2023-10-31T12:21:40;12.60;99.90
23116;DHT22;11727;52.134;5.052;2023-10-31T12:24:09;12.50;99.90
23116;DHT22;11727;52.134;5.052;2023-10-31T12:26:35;12.50;99.90
23116;DHT22;11727;52.134;5.052;2023-10-31T12:29:17;12.50;99.90
23116;DHT22;11727;52.134;5.052;2023-10-31T12:34:11;12.50;99.90
23116;DHT22;11727;52.134;5.052;2023-10-31T12:36:38;12.50;99.90
23116;DHT22;11727;52.134;5.052;2023-10-31T12:39:05;12.60;99.90
23116;DHT22;11727;52.134;5.052;2023-10-31T12:41:32;12.60;99.90
23116;DHT22;11727;52.134;5.052;2023-10-31T12:43:58;12.60;99.90
23116;DHT22;11727;52.134;5.052;2023-10-31T12:46:34;12.60;99.90
23116;DHT22;11727;52.134;5.052;2023-10-31T12:49:00;12.70;99.90
23116;DHT22;11727;52.134;5.052;2023-10-31T12:51:26;12.70;99.90
23116;DHT22;11727;52.134;5.052;2023-10-31T12:53:52;12.70;99.90
23116;DHT22;11727;52.134;5.052;2023-10-31T12:56:40;12.70;99.90
23116;DHT22;11727;52.134;5.052;2023-10-31T12:59:10;12.70;99.90
23116;DHT22;11727;52.134;5.052;2023-10-31T13:01:44;12.70;99.90
23116;DHT22;11727;52.134;5.052;2023-10-31T13:04:10;12.80;99.90
23116;DHT22;11727;52.134;5.052;2023-10-31T13:06:37;12.70;99.90
23116;DHT22;11727;52.134;5.052;2023-10-31T13:09:03;12.60;99.90
23116;DHT22;11727;52.134;5.052;2023-10-31T13:11:39;12.60;99.90
23116;DHT22;11727;52.134;5.052;2023-10-31T13:14:05;12.60;99.90
23116;DHT22;11727;52.134;5.052;2023-10-31T13:16:32;12.50;99.90
23116;DHT22;11727;52.134;5.052;2023-10-31T13:18:59;12.50;99.90
23116;DHT22;11727;52.134;5.052;2023-10-31T13:21:24;12.50;99.90
23116;DHT22;11727;52.134;5.052;2023-10-31T13:23:50;12.40;99.90
23116;DHT22;11727;52.134;5.052;2023-10-31T13:26:16;12.50;99.90
23116;DHT22;11727;52.134;5.052;2023-10-31T13:28:42;12.50;99.90
23116;DHT22;11727;52.134;5.052;2023-10-31T13:31:07;12.40;99.90
23116;DHT22;11727;52.134;5.052;2023-10-31T13:33:34;12.40;99.90
23116;DHT22;11727;52.134;5.052;2023-10-31T13:36:00;12.30;99.90
23116;DHT22;11727;52.134;5.052;2023-10-31T13:38:26;12.20;99.90
23116;DHT22;11727;52.134;5.052;2023-10-31T13:40:51;12.20;99.90
23116;DHT22;11727;52.134;5.052;2023-10-31T13:43:17;12.20;99.90
23116;DHT22;11727;52.134;5.052;2023-10-31T13:45:59;12.20;99.90
23116;DHT22;11727;52.134;5.052;2023-10-31T13:48:28;12.20;99.90
23116;DHT22;11727;52.134;5.052;2023-10-31T13:50:53;12.10;99.90
23116;DHT22;11727;52.134;5.052;2023-10-31T13:53:19;12.10;99.90
23116;DHT22;11727;52.134;5.052;2023-10-31T13:55:44;12.00;99.90
23116;DHT22;11727;52.134;5.052;2023-10-31T13:58:11;12.00;99.90
23116;DHT22;11727;52.134;5.052;2023-10-31T14:00:36;11.90;99.90
23116;DHT22;11727;52.134;5.052;2023-10-31T14:03:02;11.90;99.90
23116;DHT22;11727;52.134;5.052;2023-10-31T14:05:28;11.90;99.90
23116;DHT22;11727;52.134;5.052;2023-10-31T14:07:53;11.80;99.90
23116;DHT22;11727;52.134;5.052;2023-10-31T14:10:23;11.80;99.90
23116;DHT22;11727;52.134;5.052;2023-10-31T14:12:49;11.80;99.90
23116;DHT22;11727;52.134;5.052;2023-10-31T14:15:15;11.80;99.90
23116;DHT22;11727;52.134;5.052;2023-10-31T14:17:41;11.80;99.90
23116;DHT22;11727;52.134;5.052;2023-10-31T14:20:07;11.80;99.90
23116;DHT22;11727;52.134;5.052;2023-10-31T14:22:33;11.80;99.90
23116;DHT22;11727;52.134;5.052;2023-10-31T14:25:05;11.80;99.90
23116;DHT22;11727;52.134;5.052;2023-10-31T14:27:33;11.70;99.90
23116;DHT22;11727;52.134;5.052;2023-10-31T14:30:02;11.70;99.90
23116;DHT22;11727;52.134;5.052;2023-10-31T14:32:27;11.70;99.90
23116;DHT22;11727;52.134;5.052;2023-10-31T14:34:53;11.70;99.90
23116;DHT22;11727;52.134;5.052;2023-10-31T14:37:19;11.60;99.90
23116;DHT22;11727;52.134;5.052;2023-10-31T14:39:44;11.60;99.90
23116;DHT22;11727;52.134;5.052;2023-10-31T14:42:10;11.70;99.90
23116;DHT22;11727;52.134;5.052;2023-10-31T14:44:36;11.70;99.90
23116;DHT22;11727;52.134;5.052;2023-10-31T14:47:02;11.70;99.90
23116;DHT22;11727;52.134;5.052;2023-10-31T14:49:28;11.70;99.90
23116;DHT22;11727;52.134;5.052;2023-10-31T14:51:53;11.70;99.90
23116;DHT22;11727;52.134;5.052;2023-10-31T14:54:20;11.70;99.90
23116;DHT22;11727;52.134;5.052;2023-10-31T14:56:46;11.70;99.90
23116;DHT22;11727;52.134;5.052;2023-10-31T14:59:14;11.70;99.90
23116;DHT22;11727;52.134;5.052;2023-10-31T15:01:40;11.70;99.90
23116;DHT22;11727;52.134;5.052;2023-10-31T15:04:08;11.70;99.90
23116;DHT22;11727;52.134;5.052;2023-10-31T15:06:33;11.70;99.90
23116;DHT22;11727;52.134;5.052;2023-10-31T15:08:59;11.70;99.90
23116;DHT22;11727;52.134;5.052;2023-10-31T15:11:25;11.70;99.90
23116;DHT22;11727;52.134;5.052;2023-10-31T15:13:53;11.70;99.90
23116;DHT22;11727;52.134;5.052;2023-10-31T15:16:21;11.60;99.90
23116;DHT22;11727;52.134;5.052;2023-10-31T15:18:58;11.50;99.90
23116;DHT22;11727;52.134;5.052;2023-10-31T15:21:24;11.50;99.90
23116;DHT22;11727;52.134;5.052;2023-10-31T15:23:52;11.40;99.90
23116;DHT22;11727;52.134;5.052;2023-10-31T15:41:04;11.30;99.90
23116;DHT22;11727;52.134;5.052;2023-10-31T15:57:28;11.30;99.90
23116;DHT22;11727;52.134;5.052;2023-10-31T16:31:33;11.50;99.90